TAF and METAR

Decoding for American and Canadian METARs and TAFs is not fully implemented.
No METAR available for Alert Airport

TAF for Alert Airport

TAF AMD CYLT 281935Z 2819/2906 25005KT P6SM FEW020 BKN030 TEMPO 2819/2902 1SM -SN BR BKN020 FM290200 23005KT P6SM BKN030 RMK NXT FCST BY 290000Z
Report created 28. sep 21:35

between 28. sep 21:00 - 29. sep 08:00

wind 5 knots from WSW (250°)